Time;durP1;ratioP1;P1;durP2;ratioP2;P2;SDS_P1;SDS_P2;PMS_P1;PMS_P2;Temp;Humidity;BMP_temperature;BMP_pressure;BME280_temperature;BME280_humidity;BME280_pressure;Samples;Min_cycle;Max_cycle;Signal;HPM_P1;HPM_P2
2023/01/14 00:01:28;;;;;;;14.20;8.40;;;;;;;1.02;84.34;101704.61;107582;1253;98366;-60
2023/01/14 00:03:58;;;;;;;18.00;10.50;;;;;;;1.01;84.17;101701.28;107575;1254;112290;-61
2023/01/14 00:06:29;;;;;;;17.30;9.60;;;;;;;1.03;84.38;101704.77;107621;1253;109945;-59
2023/01/14 00:09:00;;;;;;;14.50;9.20;;;;;;;1.02;84.39;101701.94;107455;1254;107743;-61
2023/01/14 00:14:21;;;;;;;16.80;9.80;;;;;;;1.00;84.64;101701.66;107504;1253;97720;-59
2023/01/14 00:16:54;;;;;;;18.60;10.30;;;;;;;1.02;84.60;101702.66;107534;1254;111362;-59
2023/01/14 00:19:24;;;;;;;13.30;8.70;;;;;;;1.03;84.89;101703.14;107608;1254;109774;-58
2023/01/14 00:21:55;;;;;;;19.50;9.60;;;;;;;1.04;84.97;101699.94;107616;1252;108655;-59
2023/01/14 00:24:23;;;;;;;16.90;9.90;;;;;;;1.03;84.99;101704.20;107588;1253;97755;-59
2023/01/14 00:26:54;;;;;;;16.50;9.70;;;;;;;1.02;84.92;101702.83;107619;1253;98383;-60
2023/01/14 00:29:26;;;;;;;20.10;10.10;;;;;;;1.02;85.02;101701.77;107628;1254;110007;-60
2023/01/14 00:31:56;;;;;;;14.80;8.80;;;;;;;1.05;84.87;101706.63;107590;1253;109086;-60
2023/01/14 00:34:27;;;;;;;15.60;8.80;;;;;;;1.09;85.09;101707.00;107443;1254;107619;-60
2023/01/14 00:36:57;;;;;;;15.50;8.90;;;;;;;1.14;85.31;101707.92;107603;1253;97710;-60
2023/01/14 00:39:25;;;;;;;15.80;9.00;;;;;;;1.15;85.22;101710.52;107536;1253;98463;-61
2023/01/14 00:41:54;;;;;;;18.80;8.30;;;;;;;1.17;85.02;101709.93;107592;1254;111756;-60
2023/01/14 00:44:23;;;;;;;16.10;8.70;;;;;;;1.14;85.11;101708.06;107646;1253;108554;-60
2023/01/14 00:46:53;;;;;;;15.60;9.30;;;;;;;1.13;84.78;101710.24;107577;1253;107142;-59
2023/01/14 00:49:24;;;;;;;12.80;8.30;;;;;;;1.12;84.78;101707.79;107591;1252;97867;-60
2023/01/14 00:51:53;;;;;;;12.60;8.00;;;;;;;1.10;84.96;101706.27;107633;1253;97899;-59
2023/01/14 00:54:22;;;;;;;14.60;8.80;;;;;;;1.11;85.02;101708.02;107610;1254;111967;-60
2023/01/14 00:56:50;;;;;;;13.00;7.90;;;;;;;1.15;85.07;101707.52;107557;1254;110512;-61
2023/01/14 00:59:22;;;;;;;15.10;8.10;;;;;;;1.17;85.20;101710.97;107598;1254;108126;-60
2023/01/14 01:01:54;;;;;;;15.60;7.80;;;;;;;1.18;85.20;101717.84;107595;1253;97835;-60
2023/01/14 01:04:24;;;;;;;14.00;7.80;;;;;;;1.20;85.13;101718.12;107594;1254;97740;-60
2023/01/14 01:06:52;;;;;;;13.80;8.40;;;;;;;1.21;85.05;101720.19;107607;1255;112276;-62
2023/01/14 01:09:21;;;;;;;11.60;7.60;;;;;;;1.23;84.86;101722.79;107630;1254;110122;-60
2023/01/14 01:11:50;;;;;;;14.10;7.60;;;;;;;1.27;85.03;101720.55;107562;1253;107633;-59
2023/01/14 01:14:19;;;;;;;12.60;7.80;;;;;;;1.30;85.09;101719.70;107590;1254;97723;-60
2023/01/14 01:16:47;;;;;;;11.60;7.30;;;;;;;1.32;84.99;101721.79;107631;1254;97885;-60
2023/01/14 01:19:16;;;;;;;10.50;6.70;;;;;;;1.34;84.91;101723.50;107651;1252;111733;-60
2023/01/14 01:21:45;;;;;;;12.40;8.00;;;;;;;1.35;84.95;101723.46;107629;1253;108710;-60
2023/01/14 01:24:14;;;;;;;11.40;7.20;;;;;;;1.32;84.59;101723.20;107431;1253;108129;-60
2023/01/14 01:26:45;;;;;;;10.40;7.10;;;;;;;1.31;84.71;101725.19;107568;1254;97832;-61
2023/01/14 01:29:16;;;;;;;13.80;7.90;;;;;;;1.30;84.57;101721.33;107660;1253;97838;-60
2023/01/14 01:31:44;;;;;;;12.40;7.40;;;;;;;1.33;84.79;101720.85;107463;1254;112039;-58
2023/01/14 01:34:12;;;;;;;14.20;7.10;;;;;;;1.34;84.87;101719.79;107604;1254;109972;-60
2023/01/14 01:36:41;;;;;;;11.30;6.70;;;;;;;1.38;84.96;101719.48;107507;1252;108837;-59
2023/01/14 01:39:10;;;;;;;9.60;6.30;;;;;;;1.41;84.75;101718.64;107528;1254;97885;-59
2023/01/14 01:41:38;;;;;;;10.60;6.60;;;;;;;1.44;84.73;101713.44;107563;1252;98481;-61
2023/01/14 01:44:27;;;;;;;14.60;7.00;;;;;;;1.47;84.66;101709.95;107557;1252;111336;-61
2023/01/14 01:46:56;;;;;;;12.70;7.80;;;;;;;1.48;84.35;101709.05;107457;1253;109053;-59
2023/01/14 01:49:29;;;;;;;10.40;7.10;;;;;;;1.47;84.47;101705.38;107438;1252;109162;-59
2023/01/14 01:52:03;;;;;;;14.10;8.40;;;;;;;1.45;84.24;101701.73;107473;1254;97959;-59
2023/01/14 01:54:37;;;;;;;13.10;8.20;;;;;;;1.43;84.28;101697.20;107563;1254;97739;-59
2023/01/14 01:57:10;;;;;;;13.00;7.70;;;;;;;1.41;84.29;101700.27;107576;1254;111428;-60
2023/01/14 01:59:44;;;;;;;12.50;7.50;;;;;;;1.40;84.42;101698.33;107592;1254;108806;-61
2023/01/14 02:02:16;;;;;;;10.40;6.70;;;;;;;1.39;84.42;101698.89;107489;1254;108210;-61
2023/01/14 02:04:44;;;;;;;12.40;7.50;;;;;;;1.40;84.35;101697.11;107643;1255;97729;-60
2023/01/14 02:07:17;;;;;;;14.20;7.80;;;;;;;1.38;84.18;101699.65;107555;1254;97812;-60
2023/01/14 02:09:48;;;;;;;13.20;7.70;;;;;;;1.35;84.13;101707.55;107487;1257;112042;-59
2023/01/14 02:12:23;;;;;;;11.70;7.20;;;;;;;1.33;84.10;101704.96;107646;1254;110254;-60
2023/01/14 02:15:14;;;;;;;10.80;7.90;;;;;;;1.29;84.40;101702.45;107617;1253;108426;-59
2023/01/14 02:17:51;;;;;;;13.80;7.90;;;;;;;1.28;84.49;101710.25;107616;1254;98543;-59
2023/01/14 02:20:29;;;;;;;12.90;7.00;;;;;;;1.29;84.43;101712.35;107605;1254;97709;-60
2023/01/14 02:22:58;;;;;;;12.80;7.40;;;;;;;1.34;84.62;101711.48;107578;1254;111366;-59
2023/01/14 02:26:29;;;;;;;14.20;8.10;;;;;;;1.36;84.58;101712.80;107616;1256;110078;-59
2023/01/14 02:29:25;;;;;;;13.90;7.10;;;;;;;1.29;84.30;101714.63;106676;1271;108497;-60
2023/01/14 02:32:04;;;;;;;12.80;8.20;;;;;;;1.24;84.46;101718.15;107560;1254;97938;-60
2023/01/14 02:34:46;;;;;;;12.10;7.30;;;;;;;1.24;84.50;101718.00;107423;1254;98370;-61
2023/01/14 02:37:28;;;;;;;14.40;8.00;;;;;;;1.27;84.59;101715.59;107536;1254;111435;-60
2023/01/14 02:40:12;;;;;;;12.30;7.80;;;;;;;1.28;84.48;101717.88;107632;1254;111064;-60
2023/01/14 02:45:56;;;;;;;13.10;7.50;;;;;;;1.31;84.80;101726.95;107582;1254;97902;-60
2023/01/14 02:48:26;;;;;;;11.20;7.30;;;;;;;1.29;84.62;101728.97;107647;1253;97938;-59
2023/01/14 02:50:54;;;;;;;12.00;7.90;;;;;;;1.25;84.51;101725.55;107552;1254;111204;-60
2023/01/14 02:53:23;;;;;;;13.60;8.30;;;;;;;1.21;84.50;101726.77;107585;1252;110168;-59
2023/01/14 02:55:52;;;;;;;15.00;8.70;;;;;;;1.21;84.64;101726.72;107608;1254;108663;-60
2023/01/14 02:59:10;;;;;;;12.10;7.60;;;;;;;1.20;84.81;101733.65;107561;1252;98008;-59
2023/01/14 03:01:59;;;;;;;13.00;8.30;;;;;;;1.22;84.76;101735.91;106941;1252;99292;-60
2023/01/14 03:05:05;;;;;;;11.80;7.90;;;;;;;1.20;84.59;101734.02;107617;1254;112257;-59
2023/01/14 03:07:45;;;;;;;14.60;8.00;;;;;;;1.17;84.64;101729.36;107590;1253;108938;-60
2023/01/14 03:10:24;;;;;;;14.60;7.80;;;;;;;1.19;84.67;101730.19;107573;1254;107702;-59
2023/01/14 03:13:10;;;;;;;15.00;8.50;;;;;;;1.21;84.68;101733.11;107573;1254;97831;-59
2023/01/14 03:16:08;;;;;;;14.70;7.70;;;;;;;1.21;84.61;101736.13;107671;1254;97965;-60
2023/01/14 03:18:57;;;;;;;14.60;8.60;;;;;;;1.21;84.72;101734.00;107668;1253;110208;-60
2023/01/14 03:21:31;;;;;;;15.70;8.20;;;;;;;1.20;84.49;101730.33;107586;1253;108549;-59
2023/01/14 03:24:25;;;;;;;16.60;9.30;;;;;;;1.14;84.57;101736.71;107596;1252;108489;-59
2023/01/14 03:26:57;;;;;;;14.50;8.80;;;;;;;1.11;84.67;101736.30;107498;1253;97886;-59
2023/01/14 03:29:37;;;;;;;13.40;7.60;;;;;;;1.11;84.86;101735.23;107621;1253;97838;-60
2023/01/14 03:32:10;;;;;;;12.50;8.30;;;;;;;1.09;84.81;101734.90;107678;1253;111854;-60
2023/01/14 03:34:47;;;;;;;22.10;9.40;;;;;;;1.07;84.71;101732.34;107729;1254;109254;-60
2023/01/14 03:37:18;;;;;;;15.40;8.50;;;;;;;1.04;84.78;101734.05;107581;1254;108232;-61
2023/01/14 03:39:49;;;;;;;14.10;8.40;;;;;;;1.01;84.67;101738.20;107493;1253;97854;-60
2023/01/14 03:42:22;;;;;;;15.80;9.00;;;;;;;0.97;84.87;101741.50;107576;1256;98350;-60
2023/01/14 03:45:00;;;;;;;18.20;8.50;;;;;;;0.95;84.83;101741.90;107509;1254;111628;-62
2023/01/14 03:47:33;;;;;;;16.70;8.80;;;;;;;0.92;84.97;101739.71;107565;1253;109686;-61
2023/01/14 03:50:06;;;;;;;17.20;10.10;;;;;;;0.92;85.14;101736.35;107596;1254;107670;-62
2023/01/14 03:52:49;;;;;;;11.50;8.10;;;;;;;0.94;85.26;101735.59;107611;1253;97817;-61
2023/01/14 03:55:25;;;;;;;12.40;7.80;;;;;;;1.00;85.64;101737.18;107634;1254;97835;-60
2023/01/14 03:58:07;;;;;;;13.90;7.50;;;;;;;1.02;85.30;101735.48;107575;1253;112442;-61
2023/01/14 04:01:08;;;;;;;20.70;8.30;;;;;;;1.04;85.48;101738.60;107565;1254;110183;-61
2023/01/14 04:03:38;;;;;;;17.70;8.80;;;;;;;1.03;85.19;101740.42;107409;1254;107892;-59
2023/01/14 04:06:08;;;;;;;12.80;7.60;;;;;;;1.02;85.28;101740.98;107567;1254;97824;-61
2023/01/14 04:08:36;;;;;;;16.40;8.40;;;;;;;0.99;85.27;101741.80;107541;1253;98418;-60
2023/01/14 04:11:05;;;;;;;15.90;8.30;;;;;;;0.96;85.11;101744.72;107604;1253;111322;-62
2023/01/14 04:16:20;;;;;;;15.10;8.60;;;;;;;0.88;85.11;101746.38;107606;1254;107304;-64
2023/01/14 04:18:49;;;;;;;15.10;8.60;;;;;;;0.81;85.16;101746.95;107606;1256;98002;-60
2023/01/14 04:21:17;;;;;;;13.70;8.10;;;;;;;0.76;85.49;101747.83;107605;1256;97832;-60
2023/01/14 04:23:45;;;;;;;13.70;8.10;;;;;;;0.74;85.57;101749.81;107597;1254;112051;-61
2023/01/14 04:26:14;;;;;;;15.40;8.80;;;;;;;0.70;85.69;101748.91;107575;1254;109128;-59
2023/01/14 04:28:42;;;;;;;16.80;9.10;;;;;;;0.64;85.75;101751.02;107559;1255;108323;-60
2023/01/14 04:31:11;;;;;;;15.90;9.50;;;;;;;0.60;85.84;101752.56;107562;1254;97819;-59
2023/01/14 04:33:39;;;;;;;14.50;8.70;;;;;;;0.57;85.86;101751.07;107532;1253;97847;-59
2023/01/14 04:36:08;;;;;;;18.00;9.50;;;;;;;0.55;86.13;101756.41;107576;1253;111235;-59
2023/01/14 04:38:36;;;;;;;17.60;9.50;;;;;;;0.54;86.12;101753.29;107614;1254;108737;-59
2023/01/14 04:41:05;;;;;;;16.30;9.20;;;;;;;0.53;86.29;101754.21;107626;1252;107854;-59
2023/01/14 04:43:33;;;;;;;13.60;8.00;;;;;;;0.53;85.99;101755.80;107590;1253;97862;-59
2023/01/14 04:46:02;;;;;;;12.80;7.30;;;;;;;0.51;86.26;101752.30;107568;1254;98357;-58
2023/01/14 04:48:30;;;;;;;15.90;8.70;;;;;;;0.51;86.17;101754.95;107614;1256;111416;-59
2023/01/14 04:51:00;;;;;;;15.00;8.90;;;;;;;0.51;86.31;101756.91;107574;1254;111089;-60
2023/01/14 04:53:28;;;;;;;16.50;8.90;;;;;;;0.51;86.37;101757.96;107564;1253;108715;-60
2023/01/14 04:55:56;;;;;;;13.60;8.00;;;;;;;0.50;86.26;101762.59;107603;1253;97882;-61
2023/01/14 04:58:25;;;;;;;16.30;8.80;;;;;;;0.47;86.33;101764.07;107595;1254;98371;-62
2023/01/14 05:00:54;;;;;;;17.00;9.00;;;;;;;0.43;86.30;101764.20;107582;1252;111873;-59
2023/01/14 05:03:23;;;;;;;19.40;10.30;;;;;;;0.42;86.39;101764.77;107590;1254;111024;-60
2023/01/14 05:05:52;;;;;;;15.00;8.90;;;;;;;0.42;86.37;101769.86;107640;1254;108376;-60
2023/01/14 05:08:21;;;;;;;16.20;9.10;;;;;;;0.42;86.43;101769.00;107560;1254;97892;-61
2023/01/14 05:10:49;;;;;;;15.00;9.50;;;;;;;0.44;86.65;101769.63;107619;1254;97729;-58
2023/01/14 05:13:18;;;;;;;14.40;9.30;;;;;;;0.48;86.77;101771.98;107548;1253;111543;-60
2023/01/14 05:15:46;;;;;;;14.70;8.40;;;;;;;0.49;86.58;101774.23;107618;1256;109672;-59
2023/01/14 05:18:16;;;;;;;16.00;9.50;;;;;;;0.55;87.06;101774.96;107609;1254;108304;-59
2023/01/14 05:20:45;;;;;;;16.00;9.10;;;;;;;0.56;86.69;101775.64;107557;1254;97936;-59
2023/01/14 05:23:15;;;;;;;19.20;10.40;;;;;;;0.54;86.56;101777.45;107557;1254;98392;-60
2023/01/14 05:25:44;;;;;;;18.90;9.30;;;;;;;0.57;86.67;101784.09;107612;1252;111899;-59
2023/01/14 05:28:15;;;;;;;17.00;9.60;;;;;;;0.56;86.39;101787.82;107576;1253;110582;-60
2023/01/14 05:30:44;;;;;;;21.70;9.40;;;;;;;0.57;86.56;101788.66;107603;1255;107682;-61
2023/01/14 05:33:13;;;;;;;15.00;9.10;;;;;;;0.61;86.78;101793.14;107604;1252;97749;-59
2023/01/14 05:35:42;;;;;;;18.90;10.40;;;;;;;0.59;86.39;101793.04;107630;1254;97877;-59
2023/01/14 05:38:11;;;;;;;16.20;9.90;;;;;;;0.53;86.34;101796.37;107581;1254;111610;-59
2023/01/14 05:40:39;;;;;;;18.80;10.00;;;;;;;0.52;86.27;101793.76;107573;1253;109721;-61
2023/01/14 05:45:57;;;;;;;13.80;8.60;;;;;;;0.49;86.68;101797.37;107537;1254;97846;-60
2023/01/14 05:48:26;;;;;;;16.60;8.40;;;;;;;0.46;86.63;101794.62;107573;1254;97833;-60
2023/01/14 05:50:57;;;;;;;14.50;8.50;;;;;;;0.47;86.71;101792.33;107579;1254;112315;-59
2023/01/14 05:53:29;;;;;;;14.20;8.70;;;;;;;0.47;86.91;101788.80;107586;1254;109514;-59
2023/01/14 05:55:58;;;;;;;17.10;10.00;;;;;;;0.45;86.66;101792.04;107547;1254;108336;-60
2023/01/14 05:58:26;;;;;;;16.90;9.80;;;;;;;0.46;86.89;101793.41;107618;1254;97726;-59
2023/01/14 06:06:51;;;;;;;16.80;8.90;;;;;;;0.49;87.28;101795.45;107605;1254;109839;-60
2023/01/14 06:09:20;;;;;;;16.80;8.60;;;;;;;0.54;87.45;101799.52;107570;1256;107356;-59
2023/01/14 06:12:01;;;;;;;16.50;9.40;;;;;;;0.53;87.04;101799.04;107637;1254;97819;-60
2023/01/14 06:14:32;;;;;;;12.80;8.40;;;;;;;0.51;86.79;101798.20;107635;1254;97732;-60
2023/01/14 06:17:05;;;;;;;18.30;10.80;;;;;;;0.50;87.07;101801.23;107650;1253;112238;-60
2023/01/14 06:19:33;;;;;;;15.30;9.10;;;;;;;0.51;86.88;101800.32;107572;1256;109318;-59
2023/01/14 06:22:02;;;;;;;15.80;8.90;;;;;;;0.52;86.90;101802.23;107585;1255;108376;-60
2023/01/14 06:24:30;;;;;;;16.20;8.70;;;;;;;0.53;87.11;101799.73;107500;1254;97831;-60
2023/01/14 06:27:05;;;;;;;12.90;8.50;;;;;;;0.54;87.08;101798.11;107618;1254;98482;-59
2023/01/14 06:29:33;;;;;;;13.40;8.90;;;;;;;0.58;87.28;101802.23;107566;1253;112315;-60
2023/01/14 06:32:02;;;;;;;14.20;8.20;;;;;;;0.60;87.20;101797.04;107592;1256;108043;-60
2023/01/14 06:34:30;;;;;;;16.90;9.00;;;;;;;0.62;86.92;101795.40;107586;1254;107936;-61
2023/01/14 06:36:59;;;;;;;17.20;8.90;;;;;;;0.57;86.75;101798.54;107519;1258;97840;-59
2023/01/14 06:39:27;;;;;;;20.70;10.50;;;;;;;0.54;86.77;101802.87;107528;1255;97716;-59
2023/01/14 06:41:56;;;;;;;17.80;9.60;;;;;;;0.47;86.73;101805.55;107612;1254;112290;-59
2023/01/14 06:44:25;;;;;;;19.40;11.30;;;;;;;0.43;86.66;101805.15;107567;1256;110386;-60
2023/01/14 06:46:54;;;;;;;25.60;11.90;;;;;;;0.40;87.00;101805.77;107575;1253;109005;-59
2023/01/14 06:49:22;;;;;;;30.60;14.00;;;;;;;0.38;86.76;101807.06;107576;1254;97817;-60
2023/01/14 06:51:51;;;;;;;39.20;17.20;;;;;;;0.38;87.14;101813.25;107608;1254;98386;-59
2023/01/14 06:54:20;;;;;;;41.70;16.50;;;;;;;0.38;87.00;101812.88;107618;1254;110812;-60
2023/01/14 06:56:48;;;;;;;40.10;18.30;;;;;;;0.40;87.39;101818.81;107605;1254;109613;-62
2023/01/14 06:59:16;;;;;;;54.90;22.20;;;;;;;0.44;87.25;101820.12;107613;1256;108123;-60
2023/01/14 07:01:44;;;;;;;53.40;19.90;;;;;;;0.51;87.34;101824.70;107561;1254;97809;-60
2023/01/14 07:04:14;;;;;;;53.30;19.10;;;;;;;0.54;87.25;101827.58;107551;1254;98522;-61
2023/01/14 07:06:42;;;;;;;75.70;26.30;;;;;;;0.54;86.86;101827.58;107602;1254;111151;-59
2023/01/14 07:09:13;;;;;;;80.20;28.50;;;;;;;0.58;87.22;101831.52;107556;1252;108175;-59
2023/01/14 07:11:42;;;;;;;74.00;25.40;;;;;;;0.64;87.35;101832.95;107589;1253;109229;-59
2023/01/14 07:14:11;;;;;;;68.30;23.90;;;;;;;0.71;87.31;101836.46;107558;1256;97840;-60
2023/01/14 07:16:39;;;;;;;41.70;19.40;;;;;;;0.75;87.38;101840.23;107598;1254;98383;-60
2023/01/14 07:19:07;;;;;;;32.20;14.40;;;;;;;0.77;87.09;101841.75;107642;1256;112192;-62
2023/01/14 07:21:35;;;;;;;30.70;15.30;;;;;;;0.73;86.74;101840.98;107634;1253;109669;-59
2023/01/14 07:24:05;;;;;;;31.00;14.80;;;;;;;0.69;86.50;101837.57;107649;1256;108268;-60
2023/01/14 07:26:33;;;;;;;25.50;14.00;;;;;;;0.68;86.63;101845.55;107568;1256;97716;-59
2023/01/14 07:29:03;;;;;;;26.80;13.50;;;;;;;0.65;86.58;101844.22;107600;1254;98360;-59
2023/01/14 07:31:31;;;;;;;24.80;13.40;;;;;;;0.67;86.57;101844.50;107582;1256;112066;-60
2023/01/14 07:33:59;;;;;;;21.60;12.50;;;;;;;0.71;86.96;101848.65;107556;1254;111308;-59
2023/01/14 07:36:28;;;;;;;22.20;13.10;;;;;;;0.70;86.55;101848.13;107632;1256;108107;-59
2023/01/14 07:38:56;;;;;;;22.70;12.00;;;;;;;0.71;86.74;101849.00;107553;1254;97845;-62
2023/01/14 07:41:24;;;;;;;20.40;11.10;;;;;;;0.74;86.71;101850.84;107635;1254;97848;-62
2023/01/14 07:43:53;;;;;;;26.60;15.00;;;;;;;0.80;86.73;101856.13;107547;1254;112048;-59
2023/01/14 07:46:21;;;;;;;25.40;13.90;;;;;;;0.84;86.63;101853.36;107593;1254;109602;-59
2023/01/14 07:48:49;;;;;;;22.70;13.40;;;;;;;0.86;86.59;101855.59;107557;1255;109485;-60
2023/01/14 07:51:20;;;;;;;21.40;12.00;;;;;;;0.86;86.40;101856.13;107596;1254;97858;-58
2023/01/14 07:53:49;;;;;;;22.30;12.20;;;;;;;0.86;86.27;101860.89;107655;1254;97834;-60
2023/01/14 07:56:17;;;;;;;28.00;14.10;;;;;;;0.89;86.55;101865.92;107618;1254;112238;-59
2023/01/14 07:58:48;;;;;;;24.80;13.60;;;;;;;0.89;86.46;101863.97;107619;1254;110059;-60
2023/01/14 08:01:16;;;;;;;26.30;14.00;;;;;;;0.87;86.00;101865.27;107514;1256;107155;-60
2023/01/14 08:03:45;;;;;;;28.70;15.60;;;;;;;0.81;85.74;101862.28;107631;1254;97840;-58
2023/01/14 08:06:14;;;;;;;23.40;12.40;;;;;;;0.79;85.85;101867.64;107635;1256;98369;-59
2023/01/14 08:08:42;;;;;;;26.00;12.80;;;;;;;0.76;86.07;101869.31;107612;1256;111118;-59
2023/01/14 08:11:11;;;;;;;22.80;11.90;;;;;;;0.75;86.13;101875.17;107496;1256;110242;-59
2023/01/14 08:13:39;;;;;;;21.20;11.60;;;;;;;0.74;86.14;101872.73;107544;1256;109096;-59
2023/01/14 08:16:09;;;;;;;23.90;12.00;;;;;;;0.71;86.16;101873.52;107599;1257;97966;-60
2023/01/14 08:18:37;;;;;;;21.70;11.80;;;;;;;0.73;86.30;101879.64;107593;1256;97811;-60
2023/01/14 08:21:08;;;;;;;21.80;10.80;;;;;;;0.77;86.33;101884.30;107591;1257;111972;-61
2023/01/14 08:23:37;;;;;;;20.90;10.80;;;;;;;0.80;86.24;101890.02;107564;1254;110409;-61
2023/01/14 08:26:11;;;;;;;17.60;11.20;;;;;;;0.81;86.04;101894.05;107540;1254;109200;-60
2023/01/14 08:28:40;;;;;;;;;;;;;;;0.82;86.17;101896.34;107568;1257;97922;-61
2023/01/14 08:31:11;;;;;;;14.70;8.90;;;;;;;0.83;86.17;101897.02;107630;1257;97681;-61
2023/01/14 08:33:41;;;;;;;15.40;9.10;;;;;;;0.84;85.98;101899.64;107588;1255;112231;-61
2023/01/14 08:36:19;;;;;;;17.90;10.40;;;;;;;0.83;85.99;101897.73;107503;1254;109626;-60
2023/01/14 08:38:51;;;;;;;19.40;11.00;;;;;;;0.85;86.22;101904.73;107546;1256;108282;-60
2023/01/14 08:41:20;;;;;;;17.80;10.60;;;;;;;0.82;86.07;101904.12;107527;1255;97834;-60
2023/01/14 08:43:51;;;;;;;18.20;9.80;;;;;;;0.83;86.26;101901.79;107550;1255;97835;-61
2023/01/14 08:46:20;;;;;;;19.60;10.20;;;;;;;0.79;85.91;101906.48;107544;1254;111882;-61
2023/01/14 08:48:48;;;;;;;19.60;11.80;;;;;;;0.82;86.48;101904.11;107549;1255;109744;-59
2023/01/14 08:51:17;;;;;;;21.40;10.70;;;;;;;0.86;86.30;101902.93;107544;1255;108338;-61
2023/01/14 08:53:45;;;;;;;16.40;9.90;;;;;;;0.88;86.26;101904.09;107534;1256;97876;-59
2023/01/14 08:56:16;;;;;;;22.30;11.50;;;;;;;0.92;86.19;101903.10;107642;1254;97736;-60
2023/01/14 08:58:44;;;;;;;23.90;13.10;;;;;;;0.92;86.00;101904.87;107650;1254;112378;-62
2023/01/14 09:01:13;;;;;;;27.30;14.00;;;;;;;0.92;85.94;101903.99;107566;1254;109333;-60
2023/01/14 09:03:43;;;;;;;24.80;12.90;;;;;;;0.92;86.04;101901.86;107549;1254;108773;-60
2023/01/14 09:06:14;;;;;;;20.40;11.80;;;;;;;0.95;86.13;101903.89;107577;1256;97819;-61
2023/01/14 09:17:17;;;;;;;21.60;11.60;;;;;;;0.97;85.99;101891.48;107518;1254;111505;-61
2023/01/14 09:19:55;;;;;;;17.80;10.30;;;;;;;0.93;85.80;101884.88;107609;1254;98479;-62
2023/01/14 09:22:26;;;;;;;18.40;11.00;;;;;;;0.96;86.23;101888.52;107552;1255;97830;-61
2023/01/14 09:24:55;;;;;;;25.90;10.90;;;;;;;0.93;86.04;101886.98;107562;1256;113011;-61
2023/01/14 09:27:25;;;;;;;15.90;10.40;;;;;;;0.95;86.15;101892.23;107566;1254;109760;-61
2023/01/14 09:29:55;;;;;;;21.90;10.60;;;;;;;0.93;86.06;101889.98;107505;1254;108756;-60
2023/01/14 09:32:24;;;;;;;19.20;10.80;;;;;;;0.93;86.09;101890.01;107560;1254;97851;-58
2023/01/14 09:34:52;;;;;;;22.90;10.70;;;;;;;0.91;86.16;101889.70;107587;1256;97732;-60
2023/01/14 09:37:24;;;;;;;27.20;14.50;;;;;;;0.92;86.02;101891.27;107608;1254;111878;-60
2023/01/14 09:39:52;;;;;;;27.40;14.50;;;;;;;0.93;86.17;101887.36;107603;1254;110131;-63
2023/01/14 09:42:23;;;;;;;31.60;16.30;;;;;;;0.92;86.06;101889.32;107610;1253;108436;-60
2023/01/14 09:45:01;;;;;;;31.50;16.80;;;;;;;0.90;86.21;101889.21;107592;1256;97844;-59
2023/01/14 09:47:29;;;;;;;30.30;16.20;;;;;;;0.88;86.31;101889.44;107618;1256;98454;-59
2023/01/14 09:49:58;;;;;;;33.80;15.30;;;;;;;0.87;86.20;101886.48;107620;1254;111465;-59
2023/01/14 09:52:43;;;;;;;28.80;15.30;;;;;;;0.86;86.32;101882.96;107629;1257;111315;-61
2023/01/14 09:55:33;;;;;;;34.20;16.80;;;;;;;0.85;86.44;101881.77;107624;1253;108751;-61
2023/01/14 09:58:09;;;;;;;24.90;13.10;;;;;;;0.87;86.68;101876.41;107482;1254;97838;-61
2023/01/14 10:01:01;;;;;;;24.90;12.90;;;;;;;0.93;86.92;101874.09;107622;1256;97915;-60
2023/01/14 10:03:50;;;;;;;25.30;11.60;;;;;;;0.97;86.53;101873.28;107653;1253;112209;-61
2023/01/14 10:06:19;;;;;;;23.50;13.00;;;;;;;0.94;86.24;101872.66;107574;1253;110488;-61
2023/01/14 10:09:05;;;;;;;19.90;10.60;;;;;;;0.95;86.45;101872.46;107569;1254;108664;-59
2023/01/14 10:11:37;;;;;;;25.80;10.50;;;;;;;0.99;86.29;101868.64;107586;1253;97856;-61
2023/01/14 10:14:13;;;;;;;29.80;13.20;;;;;;;1.01;86.16;101866.11;107586;1254;97704;-62
2023/01/14 10:16:45;;;;;;;28.40;13.10;;;;;;;1.00;86.33;101862.95;107572;1254;111688;-63
2023/01/14 10:19:30;;;;;;;21.00;12.90;;;;;;;1.00;86.37;101859.23;107562;1254;108773;-61
2023/01/14 10:22:21;;;;;;;15.60;9.30;;;;;;;1.04;86.36;101857.69;107480;1254;107641;-64
2023/01/14 10:24:50;;;;;;;17.80;10.40;;;;;;;1.13;86.82;101859.19;107506;1254;97832;-61
2023/01/14 10:27:19;;;;;;;21.00;11.50;;;;;;;1.15;86.48;101856.81;107512;1257;97720;-62
2023/01/14 10:29:47;;;;;;;20.10;11.40;;;;;;;1.12;86.18;101850.21;107608;1256;110964;-63
2023/01/14 10:32:20;;;;;;;17.40;9.80;;;;;;;1.12;86.18;101843.84;107634;1254;109311;-60
2023/01/14 10:34:52;;;;;;;23.50;11.70;;;;;;;1.14;86.31;101846.25;107506;1254;108703;-61
2023/01/14 10:37:21;;;;;;;20.00;11.30;;;;;;;1.15;86.25;101838.45;107592;1253;97959;-61
2023/01/14 10:39:52;;;;;;;25.50;13.20;;;;;;;1.21;86.67;101834.89;107512;1256;97793;-65
2023/01/14 10:42:25;;;;;;;23.10;13.80;;;;;;;1.25;86.28;101833.17;107570;1254;110782;-60
2023/01/14 10:44:55;;;;;;;24.50;14.30;;;;;;;1.26;86.07;101834.55;106924;1254;108880;-61
2023/01/14 10:47:24;;;;;;;26.90;15.10;;;;;;;1.26;85.69;101832.27;107563;1254;108423;-60
2023/01/14 10:50:17;;;;;;;35.50;17.20;;;;;;;1.24;85.76;101833.73;107600;1254;97704;-61
2023/01/14 10:52:45;;;;;;;38.20;18.30;;;;;;;1.26;85.88;101829.44;107527;1254;98405;-60
2023/01/14 10:55:21;;;;;;;33.40;16.70;;;;;;;1.25;85.92;101826.44;107513;1254;112605;-61
2023/01/14 10:58:15;;;;;;;32.60;18.00;;;;;;;1.31;85.87;101827.16;107451;1254;110274;-61
2023/01/14 11:00:50;;;;;;;29.80;16.40;;;;;;;1.36;86.32;101825.40;107511;1254;107134;-59
2023/01/14 11:03:22;;;;;;;27.40;15.70;;;;;;;1.38;85.93;101826.40;107504;1254;97960;-60
2023/01/14 11:06:05;;;;;;;22.80;12.80;;;;;;;1.35;85.42;101824.38;107560;1253;99533;-60
2023/01/14 11:08:36;;;;;;;26.30;13.50;;;;;;;1.37;85.35;101821.50;107642;1255;111366;-61
2023/01/14 11:11:11;;;;;;;28.20;14.60;;;;;;;1.41;85.70;101817.99;107645;1256;109884;-59
2023/01/14 11:13:44;;;;;;;27.10;14.20;;;;;;;1.47;85.61;101819.55;107626;1254;108789;-60
2023/01/14 11:16:25;;;;;;;26.30;14.70;;;;;;;1.48;85.47;101818.30;107544;1254;97850;-60
2023/01/14 11:19:03;;;;;;;35.50;16.00;;;;;;;1.53;85.69;101816.89;107563;1254;97823;-62
2023/01/14 11:21:35;;;;;;;38.00;19.20;;;;;;;1.56;85.59;101817.14;107556;1254;112115;-60
2023/01/14 11:24:07;;;;;;;41.60;17.20;;;;;;;1.61;85.63;101818.40;107599;1254;108830;-60
2023/01/14 11:26:38;;;;;;;42.80;20.30;;;;;;;1.61;85.39;101819.79;107550;1254;108247;-60
2023/01/14 11:29:32;;;;;;;41.80;21.60;;;;;;;1.60;85.09;101824.42;107475;1257;97953;-60
2023/01/14 11:32:11;;;;;;;35.00;17.50;;;;;;;1.56;84.93;101827.02;107610;1254;97828;-61
2023/01/14 11:34:39;;;;;;;30.60;17.30;;;;;;;1.53;85.00;101828.20;107522;1254;112214;-59
2023/01/14 11:37:10;;;;;;;30.30;16.20;;;;;;;1.58;85.00;101824.33;107521;1254;109688;-60
2023/01/14 11:39:45;;;;;;;30.70;16.40;;;;;;;1.59;84.84;101828.36;107507;1253;108711;-61
2023/01/14 11:42:31;;;;;;;30.20;14.90;;;;;;;1.59;84.82;101824.83;107588;1254;97928;-61
2023/01/14 11:45:11;;;;;;;33.80;15.50;;;;;;;1.60;84.99;101826.02;107551;1257;97934;-61
2023/01/14 11:47:56;;;;;;;26.40;14.70;;;;;;;1.63;84.87;101828.74;107595;1256;112372;-61
2023/01/14 11:50:34;;;;;;;24.30;13.40;;;;;;;1.62;84.95;101819.25;107620;1253;109716;-60
2023/01/14 11:53:18;;;;;;;25.50;12.50;;;;;;;1.73;85.20;101823.28;107648;1254;108224;-60
2023/01/14 11:55:50;;;;;;;23.50;12.00;;;;;;;1.78;84.63;101823.98;107605;1254;97819;-61
2023/01/14 11:58:22;;;;;;;25.10;11.70;;;;;;;1.81;84.31;101823.89;107673;1252;97736;-61
2023/01/14 12:01:09;;;;;;;22.60;13.00;;;;;;;1.82;84.03;101823.86;107581;1254;112213;-60